Time;durP1;ratioP1;P1;durP2;ratioP2;P2;SDS_P1;SDS_P2;PMS_P1;PMS_P2;Temp;Humidity;BMP_temperature;BMP_pressure;BME280_temperature;BME280_humidity;BME280_pressure;Samples;Min_cycle;Max_cycle;Signal;HPM_P1;HPM_P2
2022/12/12 00:01:36;;;;;;;38.00;22.38;;;;;;;1.37;72.85;99845.81;5016133;28;20405;-75
2022/12/12 00:04:03;;;;;;;40.00;23.02;;;;;;;1.42;72.83;99843.34;5017775;28;20417;-75
2022/12/12 00:06:28;;;;;;;38.33;23.63;;;;;;;1.41;72.70;99847.91;5010719;28;20411;-75
2022/12/12 00:08:54;;;;;;;39.47;22.93;;;;;;;1.46;72.62;99842.75;5021741;28;20507;-75
2022/12/12 00:11:21;;;;;;;38.43;22.27;;;;;;;1.47;72.81;99849.75;5022017;28;20400;-75
2022/12/12 00:13:47;;;;;;;42.28;23.17;;;;;;;1.42;72.68;99856.69;5020643;28;20720;-75
2022/12/12 00:16:12;;;;;;;40.47;22.80;;;;;;;1.43;72.42;99847.69;5006655;28;20403;-75
2022/12/12 00:18:38;;;;;;;38.10;22.27;;;;;;;1.39;72.39;99846.41;5015095;28;20436;-75
2022/12/12 00:21:13;;;;;;;38.65;21.05;;;;;;;1.36;72.66;99844.97;5012749;28;20442;-75
2022/12/12 00:23:39;;;;;;;35.97;20.77;;;;;;;1.36;72.57;99842.31;5004924;28;20471;-75
2022/12/12 00:26:07;;;;;;;39.15;21.65;;;;;;;1.37;72.56;99843.97;5017148;28;20567;-75
2022/12/12 00:28:33;;;;;;;36.40;21.75;;;;;;;1.40;72.55;99840.91;5010706;28;20938;-75
2022/12/12 00:30:58;;;;;;;34.92;20.40;;;;;;;1.40;71.97;99848.06;5013080;28;20417;-75
2022/12/12 00:33:24;;;;;;;34.78;21.10;;;;;;;1.40;72.24;99842.75;5011435;28;20416;-75
2022/12/12 00:35:51;;;;;;;32.97;20.37;;;;;;;1.44;72.12;99844.00;5017163;28;20412;-75
2022/12/12 00:38:22;;;;;;;36.33;20.77;;;;;;;1.44;71.83;99841.31;5018480;28;20409;-75
2022/12/12 00:40:48;;;;;;;37.80;20.73;;;;;;;1.39;72.36;99847.25;5016639;28;20405;-75
2022/12/12 00:43:14;;;;;;;32.35;20.48;;;;;;;1.35;72.18;99855.88;5022734;28;20407;-75
2022/12/12 00:45:39;;;;;;;34.70;20.27;;;;;;;1.38;72.33;99850.94;5013044;28;20439;-75
2022/12/12 00:48:06;;;;;;;35.87;20.47;;;;;;;1.42;71.99;99852.19;5019160;28;20412;-75
2022/12/12 00:50:32;;;;;;;39.25;21.33;;;;;;;1.41;72.15;99847.91;5013775;28;20431;-75
2022/12/12 00:52:57;;;;;;;39.33;21.20;;;;;;;1.39;72.52;99846.41;5019034;28;20428;-75
2022/12/12 00:55:24;;;;;;;36.20;20.17;;;;;;;1.36;71.96;99860.16;5023776;28;20387;-75
2022/12/12 00:57:49;;;;;;;37.45;20.98;;;;;;;1.37;71.83;99851.97;5007518;28;20411;-75
2022/12/12 01:00:16;;;;;;;34.90;21.40;;;;;;;1.38;71.67;99861.63;5007179;28;20406;-75
2022/12/12 01:02:42;;;;;;;33.25;20.10;;;;;;;1.38;71.67;99858.94;5045927;28;20465;-75
2022/12/12 01:05:07;;;;;;;34.50;20.35;;;;;;;1.27;71.73;99864.03;5011511;28;20412;-75
2022/12/12 01:07:33;;;;;;;32.50;19.85;;;;;;;1.11;71.80;99856.38;5013784;28;20399;-75
2022/12/12 01:09:58;;;;;;;38.03;20.60;;;;;;;1.11;72.11;99853.72;5009961;28;20443;-75
2022/12/12 01:12:23;;;;;;;33.23;19.00;;;;;;;1.11;71.05;99854.53;5017685;28;20938;-75
2022/12/12 01:14:48;;;;;;;39.67;21.73;;;;;;;1.19;71.39;99861.53;5017057;28;20432;-75
2022/12/12 01:17:14;;;;;;;38.50;21.90;;;;;;;1.31;71.06;99863.47;5016680;28;20876;-75
2022/12/12 01:19:39;;;;;;;35.92;20.65;;;;;;;1.38;70.96;99868.81;5015165;28;20420;-75
2022/12/12 01:22:04;;;;;;;35.22;20.38;;;;;;;1.42;71.19;99870.03;5018025;28;20433;-75
2022/12/12 01:24:30;;;;;;;38.50;22.03;;;;;;;1.45;71.22;99866.97;5018866;28;20409;-75
2022/12/12 01:26:55;;;;;;;34.17;19.80;;;;;;;1.46;71.14;99869.47;5016403;28;20943;-75
2022/12/12 01:29:20;;;;;;;34.00;21.00;;;;;;;1.45;71.21;99867.81;5018612;28;20432;-75
2022/12/12 01:31:46;;;;;;;34.27;20.20;;;;;;;1.40;71.10;99869.44;5018884;28;20405;-75
2022/12/12 01:34:11;;;;;;;39.83;22.03;;;;;;;1.39;71.18;99868.59;5016327;28;20406;-75
2022/12/12 01:36:37;;;;;;;37.37;21.17;;;;;;;1.41;71.07;99869.25;5002462;28;20403;-75
2022/12/12 01:39:03;;;;;;;39.60;21.65;;;;;;;1.43;71.40;99872.53;5012690;28;20876;-75
2022/12/12 01:41:28;;;;;;;35.13;20.50;;;;;;;1.30;71.41;99877.00;5013977;28;20547;-75
2022/12/12 01:43:54;;;;;;;38.28;22.40;;;;;;;1.17;71.78;99871.59;5012516;28;20496;-76
2022/12/12 01:46:36;;;;;;;38.08;21.38;;;;;;;1.17;71.83;99882.28;5013395;28;20749;-75
2022/12/12 01:49:19;;;;;;;34.60;19.48;;;;;;;1.07;71.89;99884.47;5005623;28;20822;-75
2022/12/12 01:51:46;;;;;;;36.70;20.30;;;;;;;1.01;71.58;99880.75;5015021;28;20824;-75
2022/12/12 01:54:23;;;;;;;35.42;20.98;;;;;;;0.98;71.70;99887.31;5013134;28;20388;-75
2022/12/12 01:56:50;;;;;;;36.10;20.25;;;;;;;0.98;71.97;99876.66;5014501;28;20432;-75
2022/12/12 01:59:19;;;;;;;39.53;22.10;;;;;;;0.97;71.79;99879.50;5015526;28;20398;-75
2022/12/12 02:01:46;;;;;;;33.35;19.85;;;;;;;0.93;71.68;99891.59;5017556;28;20409;-75
2022/12/12 02:04:12;;;;;;;39.85;21.05;;;;;;;0.91;71.55;99885.63;5017866;28;20407;-75
2022/12/12 02:06:39;;;;;;;36.50;21.42;;;;;;;0.92;71.88;99885.41;5017020;28;20409;-76
2022/12/12 02:09:08;;;;;;;37.00;20.90;;;;;;;0.93;71.55;99886.25;5012390;28;20418;-75
2022/12/12 02:11:42;;;;;;;39.10;20.83;;;;;;;0.87;71.92;99879.88;5020653;28;20424;-75
2022/12/12 02:14:07;;;;;;;38.42;20.73;;;;;;;0.85;71.97;99881.91;5018754;28;20455;-76
2022/12/12 02:17:17;;;;;;;36.40;20.77;;;;;;;0.82;71.97;99884.16;5018502;28;20408;-75
2022/12/12 02:20:06;;;;;;;37.88;20.38;;;;;;;0.78;72.06;99891.72;5004414;28;20486;-75
2022/12/12 02:23:00;;;;;;;37.57;21.53;;;;;;;0.79;71.58;99887.22;5013729;28;20484;-75
2022/12/12 02:25:50;;;;;;;36.63;20.88;;;;;;;0.76;71.87;99891.06;5009069;28;20493;-75
2022/12/12 02:28:39;;;;;;;38.88;21.52;;;;;;;0.75;71.88;99886.78;5012098;28;20401;-75
2022/12/12 02:31:21;;;;;;;41.72;22.48;;;;;;;0.63;72.31;99884.81;5012491;28;20483;-75
2022/12/12 02:34:02;;;;;;;37.20;20.93;;;;;;;0.61;72.02;99889.53;5010391;28;20451;-75
2022/12/12 02:36:46;;;;;;;38.33;21.58;;;;;;;0.44;72.54;99891.66;5008453;28;20432;-75
2022/12/12 02:39:36;;;;;;;34.97;19.97;;;;;;;0.46;72.85;99892.31;5009817;28;20438;-75
2022/12/12 02:42:21;;;;;;;34.28;20.17;;;;;;;0.48;72.51;99888.44;5013771;28;20409;-76
2022/12/12 02:45:04;;;;;;;37.35;21.33;;;;;;;0.51;72.42;99882.72;5014807;28;20941;-75
2022/12/12 02:47:31;;;;;;;35.07;19.97;;;;;;;0.44;72.07;99886.31;5003601;28;20586;-76
2022/12/12 02:50:15;;;;;;;31.63;18.85;;;;;;;0.46;72.57;99890.44;5010367;28;20459;-76
2022/12/12 02:52:45;;;;;;;35.10;19.67;;;;;;;0.35;72.25;99891.00;5011271;28;20440;-75
2022/12/12 02:55:10;;;;;;;27.77;16.07;;;;;;;0.22;72.85;99890.88;5017614;28;20417;-75
2022/12/12 02:57:36;;;;;;;21.83;13.33;;;;;;;0.27;72.76;99884.94;5005757;28;20755;-75
2022/12/12 03:00:14;;;;;;;20.40;12.60;;;;;;;0.27;72.51;99890.28;5012459;28;20422;-75
2022/12/12 03:09:14;;;;;;;20.23;10.68;;;;;;;-0.11;72.87;99882.59;5009094;28;20522;-75
2022/12/12 03:11:59;;;;;;;18.33;11.80;;;;;;;0.08;72.35;99888.28;5012454;28;20401;-75
2022/12/12 03:14:37;;;;;;;19.15;11.35;;;;;;;0.16;72.03;99880.16;5010692;28;20423;-75
2022/12/12 03:17:24;;;;;;;18.10;10.77;;;;;;;0.14;72.18;99882.19;5003959;28;20410;-75
2022/12/12 03:20:13;;;;;;;16.23;11.03;;;;;;;0.12;71.53;99881.56;5007462;28;20431;-75
2022/12/12 03:22:57;;;;;;;19.17;11.32;;;;;;;0.04;71.64;99889.66;5011100;28;20425;-75
2022/12/12 03:25:35;;;;;;;19.30;11.55;;;;;;;0.02;71.58;99891.72;5008842;28;20894;-76
2022/12/12 03:28:27;;;;;;;19.13;11.02;;;;;;;0.12;71.46;99897.53;5014977;28;20457;-76
2022/12/12 03:30:55;;;;;;;19.80;10.52;;;;;;;0.10;70.99;99889.72;4998691;28;20455;-76
2022/12/12 03:33:47;;;;;;;16.38;10.07;;;;;;;0.12;70.74;99889.56;5006909;28;20804;-76
2022/12/12 03:36:20;;;;;;;15.18;9.30;;;;;;;-0.01;71.02;99887.59;5011580;28;20483;-76
2022/12/12 03:38:55;;;;;;;16.23;8.93;;;;;;;-0.10;71.22;99894.06;5004609;28;20473;-76
2022/12/12 03:41:26;;;;;;;14.25;8.63;;;;;;;-0.05;71.16;99896.97;5005575;28;20951;-76
2022/12/12 03:44:02;;;;;;;16.45;10.00;;;;;;;-0.04;71.00;99898.63;5009324;28;20454;-75
2022/12/12 03:46:35;;;;;;;19.45;9.85;;;;;;;-0.05;70.85;99904.97;5015041;28;20545;-76
2022/12/12 03:49:12;;;;;;;15.70;9.13;;;;;;;-0.01;70.80;99900.91;5017383;28;20528;-75
2022/12/12 03:51:48;;;;;;;14.82;9.30;;;;;;;-0.03;70.38;99898.44;5014994;28;20469;-76
2022/12/12 03:54:22;;;;;;;15.50;9.20;;;;;;;-0.12;70.85;99898.75;5018594;28;20466;-76
2022/12/12 03:56:56;;;;;;;13.73;9.30;;;;;;;-0.13;70.55;99897.91;5011419;28;20579;-76
2022/12/12 03:59:43;;;;;;;13.98;8.55;;;;;;;-0.24;70.32;99893.09;5007543;28;20835;-76
2022/12/12 04:02:23;;;;;;;12.90;7.50;;;;;;;-0.42;71.13;99890.03;5006867;28;20450;-75
2022/12/12 04:05:05;;;;;;;11.25;7.60;;;;;;;-0.34;70.68;99889.94;5007122;28;20413;-76
2022/12/12 04:07:42;;;;;;;12.70;7.75;;;;;;;-0.37;70.63;99892.97;5012751;28;20455;-75
2022/12/12 04:13:22;;;;;;;11.63;7.33;;;;;;;-0.55;70.63;99897.88;5013626;28;20561;-75
2022/12/12 04:15:58;;;;;;;10.05;6.65;;;;;;;-0.55;70.88;99888.03;5012622;28;20429;-76
2022/12/12 04:18:27;;;;;;;9.88;6.60;;;;;;;-0.53;70.44;99891.34;5002581;28;20480;-75
2022/12/12 04:24:14;;;;;;;12.02;7.15;;;;;;;-0.52;70.25;99893.00;5007233;28;20964;-76
2022/12/12 04:26:59;;;;;;;11.40;6.70;;;;;;;-0.58;69.79;99893.75;5015526;28;20417;-75
2022/12/12 04:29:30;;;;;;;12.23;7.10;;;;;;;-0.59;70.26;99891.25;5014281;28;20484;-76
2022/12/12 04:32:14;;;;;;;10.25;6.82;;;;;;;-0.47;70.44;99899.59;5010360;28;20456;-76
2022/12/12 04:34:52;;;;;;;14.02;6.85;;;;;;;-0.47;70.12;99900.44;5019488;28;20400;-76
2022/12/12 04:37:22;;;;;;;13.13;7.85;;;;;;;-0.60;70.40;99900.28;5008150;28;20474;-76
2022/12/12 04:39:52;;;;;;;13.13;7.75;;;;;;;-0.69;70.68;99902.19;5022330;28;20452;-76
2022/12/12 04:42:21;;;;;;;12.70;8.40;;;;;;;-0.68;71.04;99903.84;5007243;28;20440;-76
2022/12/12 04:44:49;;;;;;;13.57;7.80;;;;;;;-0.61;70.69;99906.59;5007508;28;20909;-76
2022/12/12 04:47:16;;;;;;;13.47;8.60;;;;;;;-0.59;70.51;99909.88;5036688;28;20418;-76
2022/12/12 04:49:45;;;;;;;16.20;9.20;;;;;;;-0.65;70.64;99908.81;5012010;28;20783;-76
2022/12/12 04:52:13;;;;;;;15.38;10.05;;;;;;;-0.72;70.54;99899.91;5011924;28;21432;-76
2022/12/12 04:54:50;;;;;;;16.77;10.52;;;;;;;-0.92;70.47;99904.16;5017207;28;20419;-76
2022/12/12 04:57:22;;;;;;;16.85;10.10;;;;;;;-1.14;72.21;99905.91;5007004;28;20827;-76
2022/12/12 04:59:48;;;;;;;15.98;9.38;;;;;;;-0.92;71.91;99914.78;5012844;28;20417;-76
2022/12/12 05:02:55;;;;;;;15.53;9.57;;;;;;;-0.81;71.46;99906.34;5006639;28;20817;-76
2022/12/12 05:05:27;;;;;;;14.88;8.98;;;;;;;-0.97;72.20;99913.69;5050623;28;20413;-76
2022/12/12 05:08:01;;;;;;;13.48;9.07;;;;;;;-0.83;72.15;99915.53;5002527;28;20970;-76
2022/12/12 05:10:27;;;;;;;15.82;8.73;;;;;;;-0.74;71.59;99914.41;5013285;28;20914;-76
2022/12/12 05:12:57;;;;;;;14.03;8.70;;;;;;;-0.73;72.01;99916.91;5023339;28;20410;-75
2022/12/12 05:15:24;;;;;;;13.23;8.88;;;;;;;-0.81;71.58;99918.81;5006791;28;20408;-76
2022/12/12 05:18:02;;;;;;;14.87;9.77;;;;;;;-0.75;72.06;99926.88;5010380;28;20915;-76
2022/12/12 05:20:29;;;;;;;13.77;8.37;;;;;;;-0.76;72.26;99927.09;5004886;28;20490;-76
2022/12/12 05:22:54;;;;;;;12.65;7.85;;;;;;;-0.76;72.09;99921.78;5005787;28;20425;-76
2022/12/12 05:25:19;;;;;;;12.83;7.87;;;;;;;-0.74;71.47;99917.91;5000112;28;20423;-75
2022/12/12 05:27:44;;;;;;;11.40;7.10;;;;;;;-0.74;72.01;99925.88;5010475;28;20400;-75
2022/12/12 05:30:10;;;;;;;10.57;6.20;;;;;;;-0.76;71.58;99919.91;5005942;28;20499;-75
2022/12/12 05:32:35;;;;;;;9.07;5.87;;;;;;;-0.77;71.43;99920.94;5008776;28;20412;-76
2022/12/12 05:35:01;;;;;;;7.60;5.90;;;;;;;-0.79;71.22;99912.31;5005618;28;20417;-76
2022/12/12 05:37:26;;;;;;;6.93;5.77;;;;;;;-0.82;71.13;99918.00;5005681;28;20829;-76
2022/12/12 05:39:52;;;;;;;8.67;4.50;;;;;;;-0.85;71.02;99923.69;5013150;28;20408;-76
2022/12/12 05:42:17;;;;;;;5.57;4.27;;;;;;;-0.87;71.07;99923.06;4994243;28;20494;-75
2022/12/12 05:44:42;;;;;;;5.17;4.00;;;;;;;-0.90;70.83;99926.09;5010785;28;20428;-76
2022/12/12 05:47:08;;;;;;;5.67;4.50;;;;;;;-0.89;70.91;99934.91;5007186;28;20766;-76
2022/12/12 05:49:33;;;;;;;5.93;4.17;;;;;;;-0.90;70.66;99931.41;5005622;28;20424;-76
2022/12/12 05:51:58;;;;;;;6.40;4.43;;;;;;;-0.97;70.29;99929.66;5014907;28;20410;-76
2022/12/12 05:54:23;;;;;;;5.40;3.80;;;;;;;-0.96;70.79;99934.81;5014105;28;20408;-76
2022/12/12 05:56:49;;;;;;;11.40;4.57;;;;;;;-0.94;70.59;99931.94;5011583;28;20782;-76
2022/12/12 05:59:14;;;;;;;6.33;4.00;;;;;;;-0.96;70.17;99928.66;5009781;28;20401;-76
2022/12/12 06:01:39;;;;;;;6.30;4.20;;;;;;;-1.00;70.12;99938.84;5004441;28;20801;-76
2022/12/12 06:04:05;;;;;;;6.77;4.13;;;;;;;-1.01;70.30;99939.84;5009849;28;20405;-77
2022/12/12 06:06:30;;;;;;;5.72;3.72;;;;;;;-0.98;69.95;99947.44;5000304;28;20497;-76
2022/12/12 06:08:55;;;;;;;5.87;4.37;;;;;;;-1.01;70.05;99946.97;5001250;28;20909;-76
2022/12/12 06:11:23;;;;;;;8.43;4.40;;;;;;;-1.00;69.89;99956.63;5012606;28;20421;-76
2022/12/12 06:13:49;;;;;;;9.63;4.30;;;;;;;-1.00;70.32;99952.13;5007660;28;20417;-75
2022/12/12 06:16:16;;;;;;;6.20;4.47;;;;;;;-0.96;69.61;99950.75;5000054;28;20406;-75
2022/12/12 06:18:42;;;;;;;6.15;4.53;;;;;;;-0.99;69.33;99951.13;5004722;28;20414;-75
2022/12/12 06:21:11;;;;;;;6.60;4.55;;;;;;;-0.91;69.38;99955.50;5011113;28;20468;-75
2022/12/12 06:23:40;;;;;;;5.72;4.20;;;;;;;-0.85;69.23;99949.47;5010758;28;20400;-75
2022/12/12 06:26:07;;;;;;;6.97;4.43;;;;;;;-0.90;69.59;99949.19;5022990;28;20398;-74
2022/12/12 06:28:32;;;;;;;10.52;4.68;;;;;;;-1.09;69.50;99948.72;5021728;28;20525;-74
2022/12/12 06:30:58;;;;;;;5.70;4.23;;;;;;;-1.02;69.76;99950.66;5004381;28;20513;-74
2022/12/12 06:33:24;;;;;;;6.27;4.47;;;;;;;-1.21;69.34;99952.00;5010623;28;20510;-74
2022/12/12 06:36:03;;;;;;;6.38;4.25;;;;;;;-1.24;69.84;99957.69;5008675;28;20422;-74
2022/12/12 06:38:29;;;;;;;7.20;4.97;;;;;;;-1.43;69.66;99956.38;5037567;28;20541;-74
2022/12/12 06:40:54;;;;;;;7.63;4.70;;;;;;;-1.58;70.11;99947.53;5030903;28;20426;-74
2022/12/12 06:43:20;;;;;;;8.00;5.03;;;;;;;-1.36;70.12;99956.50;5025945;28;20411;-74
2022/12/12 06:45:45;;;;;;;8.18;5.32;;;;;;;-1.29;70.12;99958.25;5009718;28;20428;-74
2022/12/12 06:48:10;;;;;;;8.93;5.83;;;;;;;-1.20;69.92;99956.31;5012760;28;20454;-74
2022/12/12 06:50:43;;;;;;;8.43;5.67;;;;;;;-1.00;70.13;99961.94;5008282;28;20421;-74
2022/12/12 06:53:09;;;;;;;11.67;6.77;;;;;;;-0.91;69.33;99966.16;5008502;28;20400;-74
2022/12/12 06:55:41;;;;;;;9.57;5.97;;;;;;;-0.84;69.74;99959.09;5007731;28;21468;-74
2022/12/12 06:58:07;;;;;;;14.13;7.30;;;;;;;-0.78;69.20;99967.16;5014193;28;20403;-74
2022/12/12 07:00:32;;;;;;;9.82;6.75;;;;;;;-0.74;69.64;99965.78;5014651;28;20403;-74
2022/12/12 07:02:57;;;;;;;11.73;7.10;;;;;;;-0.76;69.62;99969.66;5006079;28;20402;-74
2022/12/12 07:05:23;;;;;;;11.93;7.57;;;;;;;-0.75;69.74;99971.28;5012843;28;20399;-74
2022/12/12 07:07:48;;;;;;;12.37;7.70;;;;;;;-0.66;69.33;99983.50;5023801;28;20485;-74
2022/12/12 07:10:13;;;;;;;13.10;8.33;;;;;;;-0.62;69.36;99990.09;4999214;28;20787;-74
2022/12/12 07:12:38;;;;;;;11.05;7.45;;;;;;;-0.61;69.32;99997.06;5027239;28;20499;-74
2022/12/12 07:15:04;;;;;;;12.20;8.03;;;;;;;-0.67;70.10;99987.16;5014923;28;20399;-74
2022/12/12 07:17:29;;;;;;;13.43;8.73;;;;;;;-0.67;69.88;99987.16;5021332;28;20387;-74
2022/12/12 07:19:55;;;;;;;17.63;10.37;;;;;;;-0.64;70.08;99984.97;5000602;28;20469;-74
2022/12/12 07:22:20;;;;;;;16.17;9.40;;;;;;;-0.59;70.08;99998.53;5031525;28;20490;-75
2022/12/12 07:24:45;;;;;;;12.50;8.70;;;;;;;-0.60;69.95;99999.56;5007210;28;20424;-74
2022/12/12 07:27:10;;;;;;;13.70;8.03;;;;;;;-0.61;70.17;99997.91;5023476;28;20430;-74
2022/12/12 07:29:36;;;;;;;12.63;7.67;;;;;;;-0.56;70.48;99992.84;4996307;28;20969;-74
2022/12/12 07:32:01;;;;;;;16.13;9.27;;;;;;;-0.53;69.86;100000.44;5029677;28;20399;-74
2022/12/12 07:34:29;;;;;;;12.48;8.52;;;;;;;-0.47;69.82;100006.06;5031345;28;20409;-74
2022/12/12 07:36:55;;;;;;;13.37;8.03;;;;;;;-0.47;69.68;100009.56;5027214;28;20407;-74
2022/12/12 07:39:20;;;;;;;14.57;8.53;;;;;;;-0.49;69.78;100010.75;5010604;28;20426;-74
2022/12/12 07:41:45;;;;;;;16.40;8.83;;;;;;;-0.45;69.58;100004.88;4997403;28;20403;-75
2022/12/12 07:44:10;;;;;;;13.90;9.33;;;;;;;-0.45;69.62;100012.84;5031147;28;20444;-74
2022/12/12 07:46:36;;;;;;;15.50;9.63;;;;;;;-0.40;69.64;100013.13;5031196;28;20537;-74
2022/12/12 07:49:01;;;;;;;17.15;9.88;;;;;;;-0.44;69.91;100013.69;5012078;28;20765;-74
2022/12/12 07:51:27;;;;;;;18.50;10.02;;;;;;;-0.64;70.16;100011.59;5028081;28;20841;-74
2022/12/12 07:53:52;;;;;;;17.10;9.77;;;;;;;-0.70;70.76;100009.66;5031108;28;20395;-74
2022/12/12 07:56:18;;;;;;;17.43;10.33;;;;;;;-0.63;70.33;100020.41;5031388;28;20434;-74
2022/12/12 07:58:44;;;;;;;19.25;10.48;;;;;;;-0.46;69.86;100007.72;5005226;28;20408;-74
2022/12/12 08:01:20;;;;;;;19.55;10.98;;;;;;;-0.31;69.50;100013.84;5026960;28;20394;-74
2022/12/12 08:03:46;;;;;;;21.65;11.90;;;;;;;-0.28;69.91;100018.81;5012251;28;20460;-74
2022/12/12 08:06:12;;;;;;;16.98;11.00;;;;;;;-0.26;69.79;100016.75;5031728;28;20394;-74
2022/12/12 08:08:37;;;;;;;18.75;12.20;;;;;;;-0.48;70.14;100023.88;4997983;28;20421;-74
2022/12/12 08:11:08;;;;;;;17.87;10.70;;;;;;;-0.53;70.81;100028.94;5006116;28;20908;-74
2022/12/12 08:13:35;;;;;;;18.42;11.57;;;;;;;-0.41;69.85;100032.78;5004406;28;20801;-74
2022/12/12 08:16:01;;;;;;;20.48;11.15;;;;;;;-0.30;70.20;100040.31;5023397;28;20386;-75
2022/12/12 08:18:27;;;;;;;18.58;11.63;;;;;;;-0.23;69.56;100033.19;5024789;28;20398;-74
2022/12/12 08:20:52;;;;;;;18.07;10.70;;;;;;;-0.28;69.65;100045.44;5026413;28;20831;-74
2022/12/12 08:23:18;;;;;;;18.33;11.43;;;;;;;-0.34;70.20;100040.84;5020794;28;20797;-73
2022/12/12 08:25:43;;;;;;;18.65;11.50;;;;;;;-0.23;69.92;100049.19;5033817;28;20435;-74
2022/12/12 08:28:09;;;;;;;21.13;12.02;;;;;;;-0.17;69.75;100040.47;5020685;28;20418;-74
2022/12/12 08:30:34;;;;;;;22.53;12.43;;;;;;;-0.16;69.43;100043.94;5024832;28;20507;-74
2022/12/12 08:32:59;;;;;;;22.43;11.53;;;;;;;-0.19;69.79;100041.66;5033616;28;20402;-74
2022/12/12 08:35:28;;;;;;;22.83;12.67;;;;;;;-0.20;69.94;100045.34;5034465;28;20391;-74
2022/12/12 08:37:53;;;;;;;20.35;11.68;;;;;;;-0.07;69.39;100040.19;5018630;28;20954;-74
2022/12/12 08:40:19;;;;;;;17.53;11.83;;;;;;;0.02;69.48;100043.53;5024230;28;20399;-74
2022/12/12 08:42:44;;;;;;;20.27;12.07;;;;;;;0.03;69.47;100042.53;5033995;28;20399;-74
2022/12/12 08:45:10;;;;;;;18.77;12.10;;;;;;;0.09;69.56;100047.94;5032920;28;20419;-73
2022/12/12 08:47:35;;;;;;;20.25;11.43;;;;;;;0.10;69.31;100054.09;5030686;28;20889;-74
2022/12/12 08:50:01;;;;;;;21.40;11.93;;;;;;;-0.13;69.41;100057.72;5022040;28;20476;-73
2022/12/12 08:52:26;;;;;;;22.20;13.55;;;;;;;-0.37;70.06;100059.84;5019077;28;20409;-73
2022/12/12 08:54:51;;;;;;;24.30;14.10;;;;;;;-0.48;70.70;100062.97;5001054;28;20784;-74
2022/12/12 08:57:16;;;;;;;23.80;13.10;;;;;;;-0.29;70.40;100065.06;5034319;28;20383;-74
2022/12/12 08:59:42;;;;;;;24.40;13.97;;;;;;;-0.06;69.85;100061.28;5021858;28;20406;-74
2022/12/12 09:02:11;;;;;;;22.33;13.77;;;;;;;-0.10;69.85;100067.19;5011978;28;20465;-74
2022/12/12 09:04:36;;;;;;;23.40;13.63;;;;;;;-0.18;70.23;100061.94;5004521;28;20945;-74
2022/12/12 09:07:02;;;;;;;23.45;13.50;;;;;;;-0.16;70.08;100073.22;5010468;28;20490;-74
2022/12/12 09:09:28;;;;;;;23.23;13.27;;;;;;;0.00;69.64;100070.38;5000983;28;20414;-74
2022/12/12 09:11:53;;;;;;;20.83;13.27;;;;;;;0.14;69.35;100072.19;5025389;28;20391;-74
2022/12/12 09:14:18;;;;;;;25.40;13.97;;;;;;;0.19;69.20;100072.47;5027952;28;20395;-74
2022/12/12 09:16:44;;;;;;;24.75;14.70;;;;;;;0.03;69.92;100086.00;5033441;28;20387;-74
2022/12/12 09:19:09;;;;;;;23.20;13.68;;;;;;;-0.05;69.79;100091.41;5023439;28;20403;-74
2022/12/12 09:21:35;;;;;;;30.25;15.25;;;;;;;-0.05;70.29;100089.59;5001908;28;20572;-74
2022/12/12 09:24:00;;;;;;;30.70;15.93;;;;;;;-0.05;70.34;100089.59;5029252;28;20837;-74
2022/12/12 09:26:26;;;;;;;27.05;15.30;;;;;;;-0.02;70.41;100088.38;5023922;28;20397;-73
2022/12/12 09:28:51;;;;;;;22.85;14.15;;;;;;;0.27;69.90;100090.16;5023099;28;20453;-73
2022/12/12 09:31:16;;;;;;;29.17;16.70;;;;;;;0.37;69.36;100086.19;5010538;28;20432;-74
2022/12/12 09:33:42;;;;;;;29.60;15.43;;;;;;;0.14;70.12;100090.00;4999621;28;20404;-73
2022/12/12 09:36:08;;;;;;;26.97;15.87;;;;;;;0.13;69.99;100091.88;5027433;28;20525;-74
2022/12/12 09:38:34;;;;;;;31.73;17.13;;;;;;;0.40;70.16;100098.31;5010807;28;20395;-73
2022/12/12 09:41:02;;;;;;;27.20;16.40;;;;;;;0.49;69.57;100090.00;5018337;28;20406;-73
2022/12/12 09:43:32;;;;;;;29.10;15.88;;;;;;;0.60;69.32;100099.34;5032872;28;20395;-74
2022/12/12 09:46:00;;;;;;;30.23;17.85;;;;;;;0.42;69.78;100097.13;5032974;28;20440;-73
2022/12/12 09:48:41;;;;;;;31.33;17.43;;;;;;;0.49;70.21;100097.19;5029034;28;20501;-73
2022/12/12 09:51:08;;;;;;;36.72;19.33;;;;;;;0.56;69.94;100086.59;5025204;28;20865;-74
2022/12/12 09:53:34;;;;;;;32.75;19.92;;;;;;;0.65;69.62;100083.63;5018666;28;20412;-74
2022/12/12 09:56:17;;;;;;;31.63;18.70;;;;;;;0.85;69.61;100089.97;5026654;28;20462;-73
2022/12/12 09:58:52;;;;;;;36.97;20.58;;;;;;;0.98;68.91;100082.09;5050323;28;21024;-74
2022/12/12 10:01:27;;;;;;;34.90;20.05;;;;;;;0.96;69.36;100084.09;5032505;28;20429;-74
2022/12/12 10:04:11;;;;;;;34.38;19.88;;;;;;;1.00;69.33;100081.88;5020922;28;20446;-73
2022/12/12 10:06:46;;;;;;;36.17;20.73;;;;;;;0.98;69.68;100074.09;5019766;28;20464;-73
2022/12/12 10:09:36;;;;;;;40.33;21.48;;;;;;;1.11;69.54;100075.19;5032232;28;20485;-74
2022/12/12 10:12:06;;;;;;;40.22;22.10;;;;;;;1.14;69.12;100074.81;5032620;28;20425;-74
2022/12/12 10:14:37;;;;;;;38.20;21.02;;;;;;;1.15;69.53;100079.97;5019608;28;20431;-74
2022/12/12 10:17:07;;;;;;;39.47;24.30;;;;;;;1.15;69.08;100079.16;5014973;28;20493;-74
2022/12/12 10:19:46;;;;;;;39.72;22.17;;;;;;;1.08;69.59;100076.41;5032604;28;20813;-73
2022/12/12 10:22:45;;;;;;;38.60;22.42;;;;;;;1.19;69.64;100072.38;5031763;28;20383;-74
2022/12/12 10:25:26;;;;;;;35.97;20.73;;;;;;;1.32;69.13;100067.97;5005070;28;20405;-73
2022/12/12 10:28:11;;;;;;;36.67;20.83;;;;;;;1.23;69.12;100070.97;5019828;28;20431;-73
2022/12/12 10:30:45;;;;;;;37.65;21.13;;;;;;;1.20;69.49;100069.53;5015409;28;20437;-74
2022/12/12 10:33:17;;;;;;;35.10;21.45;;;;;;;1.28;69.48;100072.06;5006167;28;20974;-74
2022/12/12 10:35:56;;;;;;;38.55;21.58;;;;;;;1.34;69.55;100073.13;5025609;28;20875;-73
2022/12/12 10:38:43;;;;;;;37.75;21.42;;;;;;;1.39;69.50;100073.34;5027204;28;20433;-73
2022/12/12 10:41:19;;;;;;;36.58;21.17;;;;;;;1.29;69.32;100068.34;5032108;28;20475;-74
2022/12/12 10:44:15;;;;;;;36.78;22.35;;;;;;;1.25;69.60;100071.63;5027971;28;20504;-74
2022/12/12 10:46:52;;;;;;;36.42;21.70;;;;;;;1.22;69.43;100062.13;5020488;28;20550;-74
2022/12/12 10:49:19;;;;;;;37.22;20.58;;;;;;;1.16;69.60;100062.09;5008326;28;20403;-74
2022/12/12 10:51:47;;;;;;;38.10;21.38;;;;;;;1.27;69.52;100066.91;5030822;28;20397;-74
2022/12/12 10:54:21;;;;;;;34.65;20.25;;;;;;;1.44;69.41;100063.75;4999309;28;20397;-74
2022/12/12 10:57:08;;;;;;;36.05;20.85;;;;;;;1.54;68.81;100064.22;5002043;28;20865;-73
2022/12/12 10:59:42;;;;;;;36.57;20.60;;;;;;;1.53;68.66;100054.56;5031652;28;20892;-74
2022/12/12 11:02:23;;;;;;;33.63;20.60;;;;;;;1.41;68.46;100056.13;5029804;28;20856;-73
2022/12/12 11:04:56;;;;;;;33.85;20.45;;;;;;;1.43;68.61;100062.09;5005075;28;20417;-73
2022/12/12 11:07:22;;;;;;;32.65;19.60;;;;;;;1.55;68.73;100052.50;5031710;28;20483;-74
2022/12/12 11:09:47;;;;;;;31.77;18.85;;;;;;;1.63;68.19;100056.03;5031527;28;20886;-74
2022/12/12 11:12:15;;;;;;;31.80;18.90;;;;;;;1.63;68.05;100056.88;5031443;28;20497;-74
2022/12/12 11:14:51;;;;;;;33.63;18.65;;;;;;;1.69;68.11;100058.75;5004597;28;20436;-73
2022/12/12 11:17:25;;;;;;;32.72;18.85;;;;;;;1.72;67.85;100061.03;5022417;28;20754;-74
2022/12/12 11:19:52;;;;;;;30.98;18.38;;;;;;;1.75;67.93;100051.78;5031119;28;20399;-74
2022/12/12 11:22:18;;;;;;;34.33;19.48;;;;;;;1.74;67.69;100051.00;5012697;28;20406;-74
2022/12/12 11:24:46;;;;;;;34.23;19.40;;;;;;;1.76;67.75;100051.59;5007760;28;20453;-74
2022/12/12 11:27:27;;;;;;;30.47;19.27;;;;;;;1.64;67.39;100060.38;5031442;28;20876;-74
2022/12/12 11:30:06;;;;;;;30.57;19.00;;;;;;;1.62;67.86;100046.38;4996937;28;20541;-74
2022/12/12 11:32:44;;;;;;;32.85;19.05;;;;;;;1.77;67.38;100047.91;4997289;28;20424;-74
2022/12/12 11:35:31;;;;;;;33.42;19.35;;;;;;;1.87;67.17;100042.22;5017049;28;20738;-74
2022/12/12 11:38:02;;;;;;;34.83;20.10;;;;;;;1.86;67.42;100036.03;5004876;28;20393;-74
2022/12/12 11:40:30;;;;;;;33.25;19.10;;;;;;;1.89;67.33;100024.13;5008091;28;20402;-75
2022/12/12 11:43:18;;;;;;;30.52;18.05;;;;;;;2.03;66.83;100028.50;5014855;28;20418;-75
2022/12/12 11:45:57;;;;;;;32.47;19.08;;;;;;;2.03;66.94;100029.31;5009288;28;20411;-75
2022/12/12 11:48:34;;;;;;;32.05;18.25;;;;;;;1.98;66.78;100031.75;4994161;28;20936;-75
2022/12/12 11:50:59;;;;;;;30.15;18.83;;;;;;;1.82;66.92;100034.78;4995048;28;20495;-75